sensor_id;sensor_type;location;lat;lon;timestamp;pressure;altitude;pressure_sealevel;temperature;humidity
6096;BME280;25081;42.698;23.298;2022-11-20T00:01:58;94513.29;;;17.44;57.60
6096;BME280;25081;42.698;23.298;2022-11-20T00:04:10;94515.25;;;18.09;54.89
6096;BME280;25081;42.698;23.298;2022-11-20T00:06:21;94566.84;;;17.56;57.70
6096;BME280;25081;42.698;23.298;2022-11-20T00:08:32;94528.01;;;17.15;59.12
6096;BME280;25081;42.698;23.298;2022-11-20T00:10:43;94500.54;;;17.94;56.42
6096;BME280;25081;42.698;23.298;2022-11-20T00:12:54;94511.42;;;17.86;56.01
6096;BME280;25081;42.698;23.298;2022-11-20T00:15:06;94517.55;;;17.86;56.01
6096;BME280;25081;42.698;23.298;2022-11-20T00:17:16;94495.34;;;18.02;55.39
6096;BME280;25081;42.698;23.298;2022-11-20T00:19:27;94492.58;;;18.10;54.74
6096;BME280;25081;42.698;23.298;2022-11-20T00:21:38;94496.94;;;18.10;54.74
6096;BME280;25081;42.698;23.298;2022-11-20T00:23:49;94496.94;;;18.35;53.96
6096;BME280;25081;42.698;23.298;2022-11-20T00:26:02;94488.04;;;18.32;54.08
6096;BME280;25081;42.698;23.298;2022-11-20T00:28:12;94487.56;;;18.51;52.46
6096;BME280;25081;42.698;23.298;2022-11-20T00:30:23;94507.11;;;18.43;53.11
6096;BME280;25081;42.698;23.298;2022-11-20T00:32:34;94498.73;;;18.42;53.08
6096;BME280;25081;42.698;23.298;2022-11-20T00:34:44;94494.97;;;18.41;51.98
6096;BME280;25081;42.698;23.298;2022-11-20T00:36:55;94488.37;;;18.51;52.77
6096;BME280;25081;42.698;23.298;2022-11-20T00:39:05;94488.37;;;18.52;52.77
6096;BME280;25081;42.698;23.298;2022-11-20T00:41:16;94488.03;;;18.58;52.29
6096;BME280;25081;42.698;23.298;2022-11-20T00:43:27;94485.48;;;18.46;52.79
6096;BME280;25081;42.698;23.298;2022-11-20T00:45:37;94500.73;;;18.34;53.49
6096;BME280;25081;42.698;23.298;2022-11-20T00:47:48;94509.57;;;18.11;54.15
6096;BME280;25081;42.698;23.298;2022-11-20T00:49:58;94478.45;;;18.21;53.65
6096;BME280;25081;42.698;23.298;2022-11-20T00:52:09;94487.89;;;18.21;53.65
6096;BME280;25081;42.698;23.298;2022-11-20T00:54:20;94484.68;;;18.19;54.07
6096;BME280;25081;42.698;23.298;2022-11-20T00:56:30;94499.02;;;18.26;53.98
6096;BME280;25081;42.698;23.298;2022-11-20T00:58:42;94499.02;;;18.43;53.21
6096;BME280;25081;42.698;23.298;2022-11-20T01:00:52;94518.17;;;18.44;53.04
6096;BME280;25081;42.698;23.298;2022-11-20T01:03:02;94483.25;;;18.53;52.33
6096;BME280;25081;42.698;23.298;2022-11-20T01:05:13;94483.25;;;18.53;52.33
6096;BME280;25081;42.698;23.298;2022-11-20T01:07:23;94492.96;;;18.54;52.77
6096;BME280;25081;42.698;23.298;2022-11-20T01:09:34;94486.62;;;18.40;53.48
6096;BME280;25081;42.698;23.298;2022-11-20T01:11:45;94478.59;;;18.35;53.32
6096;BME280;25081;42.698;23.298;2022-11-20T01:13:56;94468.09;;;18.30;53.85
6096;BME280;25081;42.698;23.298;2022-11-20T01:16:08;94470.50;;;18.32;53.53
6096;BME280;25081;42.698;23.298;2022-11-20T01:18:17;94482.94;;;18.30;53.76
6096;BME280;25081;42.698;23.298;2022-11-20T01:20:28;94458.46;;;18.24;54.04
6096;BME280;25081;42.698;23.298;2022-11-20T01:22:39;94471.52;;;18.12;54.63
6096;BME280;25081;42.698;23.298;2022-11-20T01:24:49;94476.72;;;18.06;54.65
6096;BME280;25081;42.698;23.298;2022-11-20T01:27:00;94484.78;;;18.09;54.53
6096;BME280;25081;42.698;23.298;2022-11-20T01:29:13;94459.27;;;18.22;53.75
6096;BME280;25081;42.698;23.298;2022-11-20T01:31:23;94459.27;;;18.22;53.75
6096;BME280;25081;42.698;23.298;2022-11-20T01:33:33;94484.06;;;18.27;53.52
6096;BME280;25081;42.698;23.298;2022-11-20T01:35:43;94464.77;;;18.15;53.91
6096;BME280;25081;42.698;23.298;2022-11-20T01:37:54;94448.42;;;18.01;54.42
6096;BME280;25081;42.698;23.298;2022-11-20T01:40:06;94447.23;;;17.88;54.73
6096;BME280;25081;42.698;23.298;2022-11-20T01:42:17;94447.23;;;17.83;55.16
6096;BME280;25081;42.698;23.298;2022-11-20T01:44:50;94460.80;;;18.34;52.91
6096;BME280;25081;42.698;23.298;2022-11-20T01:47:00;94451.47;;;18.21;53.72
6096;BME280;25081;42.698;23.298;2022-11-20T01:49:11;94451.70;;;18.48;52.15
6096;BME280;25081;42.698;23.298;2022-11-20T01:51:24;94451.70;;;18.48;52.15
6096;BME280;25081;42.698;23.298;2022-11-20T01:53:34;94455.76;;;18.48;51.97
6096;BME280;25081;42.698;23.298;2022-11-20T01:55:46;94448.58;;;18.39;52.19
6096;BME280;25081;42.698;23.298;2022-11-20T01:57:56;94456.27;;;18.26;52.61
6096;BME280;25081;42.698;23.298;2022-11-20T02:00:09;94467.00;;;18.25;52.36
6096;BME280;25081;42.698;23.298;2022-11-20T02:02:19;94467.00;;;18.34;52.22
6096;BME280;25081;42.698;23.298;2022-11-20T02:04:29;94474.33;;;18.28;52.32
6096;BME280;25081;42.698;23.298;2022-11-20T02:06:42;94474.72;;;18.17;52.97
6096;BME280;25081;42.698;23.298;2022-11-20T02:08:51;94470.42;;;18.16;52.05
6096;BME280;25081;42.698;23.298;2022-11-20T02:11:02;94455.91;;;18.33;51.88
6096;BME280;25081;42.698;23.298;2022-11-20T02:13:12;94458.64;;;18.30;52.25
6096;BME280;25081;42.698;23.298;2022-11-20T02:15:41;94498.39;;;18.25;52.59
6096;BME280;25081;42.698;23.298;2022-11-20T02:17:52;94433.89;;;18.23;52.67
6096;BME280;25081;42.698;23.298;2022-11-20T02:20:03;94468.63;;;18.06;53.86
6096;BME280;25081;42.698;23.298;2022-11-20T02:22:14;94454.53;;;17.83;54.89
6096;BME280;25081;42.698;23.298;2022-11-20T02:24:24;94470.25;;;17.73;55.27
6096;BME280;25081;42.698;23.298;2022-11-20T02:26:36;94465.83;;;17.87;54.69
6096;BME280;25081;42.698;23.298;2022-11-20T02:28:46;94465.83;;;17.87;54.69
6096;BME280;25081;42.698;23.298;2022-11-20T02:30:56;94457.48;;;17.84;54.27
6096;BME280;25081;42.698;23.298;2022-11-20T02:33:07;94472.02;;;17.85;54.21
6096;BME280;25081;42.698;23.298;2022-11-20T02:35:41;94429.63;;;18.03;53.97
6096;BME280;25081;42.698;23.298;2022-11-20T02:37:52;94459.30;;;18.20;53.21
6096;BME280;25081;42.698;23.298;2022-11-20T02:40:02;94462.52;;;18.22;53.37
6096;BME280;25081;42.698;23.298;2022-11-20T02:42:13;94447.23;;;18.15;53.50
6096;BME280;25081;42.698;23.298;2022-11-20T02:44:23;94482.52;;;18.18;53.21
6096;BME280;25081;42.698;23.298;2022-11-20T02:46:34;94472.98;;;17.99;54.19
6096;BME280;25081;42.698;23.298;2022-11-20T02:48:44;94471.80;;;17.82;55.02
6096;BME280;25081;42.698;23.298;2022-11-20T02:50:55;94485.88;;;17.73;55.54
6096;BME280;25081;42.698;23.298;2022-11-20T02:53:06;94489.38;;;17.74;55.91
6096;BME280;25081;42.698;23.298;2022-11-20T02:55:17;94483.75;;;17.68;56.46
6096;BME280;25081;42.698;23.298;2022-11-20T02:57:27;94499.44;;;17.61;56.75
6096;BME280;25081;42.698;23.298;2022-11-20T02:59:38;94487.19;;;17.52;57.23
6096;BME280;25081;42.698;23.298;2022-11-20T03:01:49;94487.19;;;17.37;58.24
6096;BME280;25081;42.698;23.298;2022-11-20T03:03:59;94487.19;;;17.37;58.29
6096;BME280;25081;42.698;23.298;2022-11-20T03:06:10;94512.30;;;17.32;58.43
6096;BME280;25081;42.698;23.298;2022-11-20T03:08:20;94502.47;;;17.52;58.44
6096;BME280;25081;42.698;23.298;2022-11-20T03:10:31;94499.22;;;17.52;58.51
6096;BME280;25081;42.698;23.298;2022-11-20T03:12:41;94524.39;;;17.35;59.78
6096;BME280;25081;42.698;23.298;2022-11-20T03:14:52;94513.27;;;17.49;58.72
6096;BME280;25081;42.698;23.298;2022-11-20T03:17:02;94497.41;;;17.42;58.53
6096;BME280;25081;42.698;23.298;2022-11-20T03:19:13;94521.72;;;17.32;59.25
6096;BME280;25081;42.698;23.298;2022-11-20T03:21:24;94515.53;;;17.32;59.00
6096;BME280;25081;42.698;23.298;2022-11-20T03:23:34;94515.53;;;17.32;59.00
6096;BME280;25081;42.698;23.298;2022-11-20T03:25:45;94516.31;;;17.37;59.05
6096;BME280;25081;42.698;23.298;2022-11-20T03:27:55;94516.31;;;17.37;59.05
6096;BME280;25081;42.698;23.298;2022-11-20T03:30:08;94514.14;;;17.39;59.65
6096;BME280;25081;42.698;23.298;2022-11-20T03:32:19;94517.88;;;17.43;57.74
6096;BME280;25081;42.698;23.298;2022-11-20T03:34:30;94517.88;;;17.43;57.74
6096;BME280;25081;42.698;23.298;2022-11-20T03:36:41;94530.79;;;17.49;57.48
6096;BME280;25081;42.698;23.298;2022-11-20T03:38:52;94529.79;;;17.40;58.13
6096;BME280;25081;42.698;23.298;2022-11-20T03:41:03;94526.55;;;17.35;58.31
6096;BME280;25081;42.698;23.298;2022-11-20T03:43:13;94550.35;;;17.35;58.31
6096;BME280;25081;42.698;23.298;2022-11-20T03:45:24;94540.83;;;17.38;58.29
6096;BME280;25081;42.698;23.298;2022-11-20T03:47:34;94556.15;;;17.43;58.41
6096;BME280;25081;42.698;23.298;2022-11-20T03:49:45;94556.15;;;17.43;58.41
6096;BME280;25081;42.698;23.298;2022-11-20T03:51:55;94559.23;;;17.21;59.43
6096;BME280;25081;42.698;23.298;2022-11-20T03:54:07;94537.61;;;17.34;58.24
6096;BME280;25081;42.698;23.298;2022-11-20T03:56:18;94541.84;;;17.34;58.24
6096;BME280;25081;42.698;23.298;2022-11-20T03:58:27;94543.16;;;17.53;56.77
6096;BME280;25081;42.698;23.298;2022-11-20T04:00:38;94576.84;;;17.53;56.77
6096;BME280;25081;42.698;23.298;2022-11-20T04:02:49;94538.19;;;17.28;58.00
6096;BME280;25081;42.698;23.298;2022-11-20T04:05:00;94553.27;;;17.27;58.06
6096;BME280;25081;42.698;23.298;2022-11-20T04:07:10;94553.27;;;17.27;58.06
6096;BME280;25081;42.698;23.298;2022-11-20T04:09:21;94568.10;;;17.24;58.56
6096;BME280;25081;42.698;23.298;2022-11-20T04:11:32;94565.20;;;17.08;58.98
6096;BME280;25081;42.698;23.298;2022-11-20T04:13:42;94565.20;;;17.08;58.98
6096;BME280;25081;42.698;23.298;2022-11-20T04:15:53;94540.14;;;17.12;58.49
6096;BME280;25081;42.698;23.298;2022-11-20T04:18:05;94538.73;;;17.28;58.37
6096;BME280;25081;42.698;23.298;2022-11-20T04:20:15;94526.85;;;17.31;58.02
6096;BME280;25081;42.698;23.298;2022-11-20T04:22:26;94526.85;;;17.31;58.02
6096;BME280;25081;42.698;23.298;2022-11-20T04:24:36;94544.17;;;17.15;58.26
6096;BME280;25081;42.698;23.298;2022-11-20T04:26:47;94544.17;;;17.15;58.26
6096;BME280;25081;42.698;23.298;2022-11-20T04:28:58;94555.77;;;17.08;58.82
6096;BME280;25081;42.698;23.298;2022-11-20T04:31:09;94555.77;;;17.08;58.82
6096;BME280;25081;42.698;23.298;2022-11-20T04:33:19;94530.92;;;17.24;56.63
6096;BME280;25081;42.698;23.298;2022-11-20T04:35:29;94574.75;;;17.42;56.62
6096;BME280;25081;42.698;23.298;2022-11-20T04:37:40;94574.75;;;17.42;56.62
6096;BME280;25081;42.698;23.298;2022-11-20T04:39:50;94531.94;;;17.35;56.65
6096;BME280;25081;42.698;23.298;2022-11-20T04:42:01;94543.28;;;17.32;57.37
6096;BME280;25081;42.698;23.298;2022-11-20T04:44:30;94538.23;;;17.21;58.04
6096;BME280;25081;42.698;23.298;2022-11-20T04:46:41;94538.23;;;17.21;58.04
6096;BME280;25081;42.698;23.298;2022-11-20T04:48:51;94535.37;;;17.49;57.32
6096;BME280;25081;42.698;23.298;2022-11-20T04:51:05;94539.74;;;17.39;57.33
6096;BME280;25081;42.698;23.298;2022-11-20T04:53:15;94539.74;;;17.39;57.33
6096;BME280;25081;42.698;23.298;2022-11-20T04:55:26;94543.02;;;17.31;57.65
6096;BME280;25081;42.698;23.298;2022-11-20T04:57:36;94523.65;;;17.31;57.65
6096;BME280;25081;42.698;23.298;2022-11-20T04:59:47;94523.65;;;17.24;58.20
6096;BME280;25081;42.698;23.298;2022-11-20T05:01:58;94500.45;;;17.31;57.74
6096;BME280;25081;42.698;23.298;2022-11-20T05:04:08;94500.47;;;17.26;58.09
6096;BME280;25081;42.698;23.298;2022-11-20T05:06:19;94500.47;;;17.26;58.09
6096;BME280;25081;42.698;23.298;2022-11-20T05:08:29;94500.29;;;17.24;58.22
6096;BME280;25081;42.698;23.298;2022-11-20T05:10:40;94500.29;;;17.12;58.65
6096;BME280;25081;42.698;23.298;2022-11-20T05:12:51;94506.78;;;17.08;59.07
6096;BME280;25081;42.698;23.298;2022-11-20T05:15:01;94496.63;;;17.37;56.58
6096;BME280;25081;42.698;23.298;2022-11-20T05:17:12;94503.16;;;17.26;57.31
6096;BME280;25081;42.698;23.298;2022-11-20T05:19:23;94503.16;;;17.26;57.31
6096;BME280;25081;42.698;23.298;2022-11-20T05:21:33;94499.39;;;17.29;57.95
6096;BME280;25081;42.698;23.298;2022-11-20T05:23:44;94508.27;;;17.30;57.56
6096;BME280;25081;42.698;23.298;2022-11-20T05:25:55;94508.27;;;17.30;57.56
6096;BME280;25081;42.698;23.298;2022-11-20T05:28:06;94505.53;;;17.35;57.10
6096;BME280;25081;42.698;23.298;2022-11-20T05:30:17;94508.25;;;17.32;57.39
6096;BME280;25081;42.698;23.298;2022-11-20T05:32:27;94499.42;;;17.22;57.90
6096;BME280;25081;42.698;23.298;2022-11-20T05:34:38;94493.02;;;17.12;58.51
6096;BME280;25081;42.698;23.298;2022-11-20T05:36:49;94514.33;;;17.04;58.62
6096;BME280;25081;42.698;23.298;2022-11-20T05:38:59;94514.33;;;17.04;58.62
6096;BME280;25081;42.698;23.298;2022-11-20T05:41:11;94517.27;;;17.10;58.05
6096;BME280;25081;42.698;23.298;2022-11-20T05:43:20;94517.27;;;17.10;58.05
6096;BME280;25081;42.698;23.298;2022-11-20T05:45:31;94516.72;;;17.08;58.22
6096;BME280;25081;42.698;23.298;2022-11-20T05:47:41;94518.35;;;17.06;58.18
6096;BME280;25081;42.698;23.298;2022-11-20T05:49:52;94515.67;;;17.04;58.28
6096;BME280;25081;42.698;23.298;2022-11-20T05:52:03;94522.45;;;16.94;59.09
6096;BME280;25081;42.698;23.298;2022-11-20T05:54:13;94515.55;;;16.72;61.97
6096;BME280;25081;42.698;23.298;2022-11-20T05:56:24;94510.73;;;16.54;63.22
6096;BME280;25081;42.698;23.298;2022-11-20T05:58:35;94510.73;;;16.54;63.22
6096;BME280;25081;42.698;23.298;2022-11-20T06:00:45;94509.93;;;16.48;63.91
6096;BME280;25081;42.698;23.298;2022-11-20T06:02:55;94522.88;;;16.41;64.30
6096;BME280;25081;42.698;23.298;2022-11-20T06:05:08;94522.88;;;16.41;64.30
6096;BME280;25081;42.698;23.298;2022-11-20T06:07:18;94541.17;;;16.37;65.42
6096;BME280;25081;42.698;23.298;2022-11-20T06:09:29;94530.41;;;16.37;65.42
6096;BME280;25081;42.698;23.298;2022-11-20T06:11:40;94542.51;;;16.44;64.87
6096;BME280;25081;42.698;23.298;2022-11-20T06:13:50;94530.94;;;16.39;65.01
6096;BME280;25081;42.698;23.298;2022-11-20T06:16:01;94528.55;;;16.32;64.74
6096;BME280;25081;42.698;23.298;2022-11-20T06:18:12;94528.55;;;16.32;64.74
6096;BME280;25081;42.698;23.298;2022-11-20T06:20:22;94521.27;;;16.43;64.88
6096;BME280;25081;42.698;23.298;2022-11-20T06:22:33;94534.70;;;16.45;65.41
6096;BME280;25081;42.698;23.298;2022-11-20T06:24:44;94544.94;;;16.43;65.13
6096;BME280;25081;42.698;23.298;2022-11-20T06:26:54;94524.45;;;16.55;63.96
6096;BME280;25081;42.698;23.298;2022-11-20T06:29:05;94524.45;;;16.55;63.96
6096;BME280;25081;42.698;23.298;2022-11-20T06:31:16;94522.28;;;16.57;64.49
6096;BME280;25081;42.698;23.298;2022-11-20T06:33:26;94545.99;;;16.52;64.25
6096;BME280;25081;42.698;23.298;2022-11-20T06:35:37;94545.99;;;16.52;64.25
6096;BME280;25081;42.698;23.298;2022-11-20T06:37:47;94528.77;;;16.48;64.57
6096;BME280;25081;42.698;23.298;2022-11-20T06:39:58;94539.78;;;16.62;64.40
6096;BME280;25081;42.698;23.298;2022-11-20T06:42:08;94550.53;;;16.62;64.40
6096;BME280;25081;42.698;23.298;2022-11-20T06:44:19;94555.88;;;16.90;61.95
6096;BME280;25081;42.698;23.298;2022-11-20T06:46:30;94555.88;;;16.90;61.95
6096;BME280;25081;42.698;23.298;2022-11-20T06:48:41;94556.36;;;17.02;62.74
6096;BME280;25081;42.698;23.298;2022-11-20T06:50:52;94553.13;;;16.98;62.56
6096;BME280;25081;42.698;23.298;2022-11-20T06:53:04;94551.73;;;16.98;62.32
6096;BME280;25081;42.698;23.298;2022-11-20T06:55:14;94560.06;;;17.19;61.71
6096;BME280;25081;42.698;23.298;2022-11-20T06:57:25;94560.06;;;17.19;61.71
6096;BME280;25081;42.698;23.298;2022-11-20T06:59:36;94536.86;;;17.23;61.03
6096;BME280;25081;42.698;23.298;2022-11-20T07:01:47;94536.86;;;17.23;61.03
6096;BME280;25081;42.698;23.298;2022-11-20T07:03:57;94539.01;;;17.24;60.72
6096;BME280;25081;42.698;23.298;2022-11-20T07:06:08;94539.01;;;17.24;60.72
6096;BME280;25081;42.698;23.298;2022-11-20T07:08:19;94566.77;;;17.22;61.47
6096;BME280;25081;42.698;23.298;2022-11-20T07:10:29;94566.77;;;17.22;61.47
6096;BME280;25081;42.698;23.298;2022-11-20T07:12:40;94578.28;;;17.35;61.36
6096;BME280;25081;42.698;23.298;2022-11-20T07:14:51;94566.17;;;17.37;60.85
6096;BME280;25081;42.698;23.298;2022-11-20T07:17:03;94569.77;;;17.67;60.39
6096;BME280;25081;42.698;23.298;2022-11-20T07:19:14;94574.63;;;17.70;59.79
6096;BME280;25081;42.698;23.298;2022-11-20T07:21:24;94589.97;;;17.72;60.23
6096;BME280;25081;42.698;23.298;2022-11-20T07:23:35;94582.76;;;17.55;59.51
6096;BME280;25081;42.698;23.298;2022-11-20T07:25:46;94569.84;;;17.52;59.92
6096;BME280;25081;42.698;23.298;2022-11-20T07:27:58;94568.78;;;17.50;59.48
6096;BME280;25081;42.698;23.298;2022-11-20T07:30:11;94571.27;;;17.39;59.67
6096;BME280;25081;42.698;23.298;2022-11-20T07:32:21;94589.61;;;17.34;60.37
6096;BME280;25081;42.698;23.298;2022-11-20T07:34:32;94589.61;;;17.34;60.53
6096;BME280;25081;42.698;23.298;2022-11-20T07:36:43;94589.33;;;17.36;60.45
6096;BME280;25081;42.698;23.298;2022-11-20T07:38:53;94584.54;;;17.28;60.66
6096;BME280;25081;42.698;23.298;2022-11-20T07:41:04;94581.03;;;17.25;60.81
6096;BME280;25081;42.698;23.298;2022-11-20T07:43:15;94580.29;;;17.11;60.67
6096;BME280;25081;42.698;23.298;2022-11-20T07:45:25;94582.48;;;17.02;60.47
6096;BME280;25081;42.698;23.298;2022-11-20T07:47:37;94571.94;;;17.08;60.67
6096;BME280;25081;42.698;23.298;2022-11-20T07:49:48;94580.55;;;17.07;60.54
6096;BME280;25081;42.698;23.298;2022-11-20T07:51:58;94566.05;;;16.98;60.52
6096;BME280;25081;42.698;23.298;2022-11-20T07:54:09;94578.16;;;16.98;60.83
6096;BME280;25081;42.698;23.298;2022-11-20T07:56:20;94579.83;;;16.92;60.89
6096;BME280;25081;42.698;23.298;2022-11-20T07:58:31;94573.92;;;16.84;61.46
6096;BME280;25081;42.698;23.298;2022-11-20T08:00:41;94573.92;;;16.84;61.46
6096;BME280;25081;42.698;23.298;2022-11-20T08:02:52;94580.89;;;16.93;59.99
6096;BME280;25081;42.698;23.298;2022-11-20T08:05:03;94578.20;;;16.93;60.20
6096;BME280;25081;42.698;23.298;2022-11-20T08:07:13;94586.82;;;16.93;61.02
6096;BME280;25081;42.698;23.298;2022-11-20T08:09:24;94590.04;;;16.95;60.96
6096;BME280;25081;42.698;23.298;2022-11-20T08:11:35;94576.53;;;17.07;60.66
6096;BME280;25081;42.698;23.298;2022-11-20T08:14:03;94566.84;;;17.09;60.32
6096;BME280;25081;42.698;23.298;2022-11-20T08:16:23;94566.84;;;17.09;60.32
6096;BME280;25081;42.698;23.298;2022-11-20T08:18:33;94576.45;;;17.25;59.71
6096;BME280;25081;42.698;23.298;2022-11-20T08:20:44;94576.45;;;17.25;59.71
6096;BME280;25081;42.698;23.298;2022-11-20T08:22:58;94562.74;;;17.16;60.28
6096;BME280;25081;42.698;23.298;2022-11-20T08:25:10;94579.16;;;17.17;60.83
6096;BME280;25081;42.698;23.298;2022-11-20T08:27:20;94594.08;;;17.00;61.51
6096;BME280;25081;42.698;23.298;2022-11-20T08:29:31;94600.27;;;17.00;61.51
6096;BME280;25081;42.698;23.298;2022-11-20T08:31:42;94600.27;;;17.00;61.36
6096;BME280;25081;42.698;23.298;2022-11-20T08:33:52;94589.16;;;17.14;60.70
6096;BME280;25081;42.698;23.298;2022-11-20T08:36:03;94603.11;;;17.27;61.08
6096;BME280;25081;42.698;23.298;2022-11-20T08:38:14;94598.02;;;17.23;60.35
6096;BME280;25081;42.698;23.298;2022-11-20T08:40:24;94610.14;;;17.23;60.35
6096;BME280;25081;42.698;23.298;2022-11-20T08:42:35;94605.31;;;17.20;60.21
6096;BME280;25081;42.698;23.298;2022-11-20T08:44:45;94608.45;;;17.39;60.17
6096;BME280;25081;42.698;23.298;2022-11-20T08:46:56;94608.45;;;17.39;60.17
6096;BME280;25081;42.698;23.298;2022-11-20T08:49:07;94634.42;;;17.12;62.65
6096;BME280;25081;42.698;23.298;2022-11-20T08:51:17;94634.42;;;17.12;62.65
6096;BME280;25081;42.698;23.298;2022-11-20T08:53:27;94624.48;;;16.98;64.55
6096;BME280;25081;42.698;23.298;2022-11-20T08:55:38;94615.95;;;16.47;70.78
6096;BME280;25081;42.698;23.298;2022-11-20T08:57:49;94615.95;;;16.47;70.78
6096;BME280;25081;42.698;23.298;2022-11-20T08:59:59;94613.53;;;16.30;71.79
6096;BME280;25081;42.698;23.298;2022-11-20T09:02:10;94615.66;;;16.82;70.25
6096;BME280;25081;42.698;23.298;2022-11-20T09:04:20;94615.66;;;16.82;70.25
6096;BME280;25081;42.698;23.298;2022-11-20T09:06:31;94624.80;;;16.91;71.35
6096;BME280;25081;42.698;23.298;2022-11-20T09:08:41;94641.25;;;16.74;72.23
6096;BME280;25081;42.698;23.298;2022-11-20T09:10:53;94641.25;;;16.74;72.23
6096;BME280;25081;42.698;23.298;2022-11-20T09:13:03;94629.95;;;16.52;74.79
6096;BME280;25081;42.698;23.298;2022-11-20T09:15:14;94629.95;;;16.52;74.79
6096;BME280;25081;42.698;23.298;2022-11-20T09:17:25;94629.41;;;16.29;76.17
6096;BME280;25081;42.698;23.298;2022-11-20T09:19:36;94643.13;;;16.10;78.12
6096;BME280;25081;42.698;23.298;2022-11-20T09:21:46;94643.13;;;16.10;78.12
6096;BME280;25081;42.698;23.298;2022-11-20T09:23:57;94637.22;;;16.03;79.73
6096;BME280;25081;42.698;23.298;2022-11-20T09:26:09;94634.22;;;15.77;80.97
6096;BME280;25081;42.698;23.298;2022-11-20T09:28:18;94635.42;;;15.43;79.63
6096;BME280;25081;42.698;23.298;2022-11-20T09:30:29;94635.42;;;15.43;79.63
6096;BME280;25081;42.698;23.298;2022-11-20T09:32:40;94625.19;;;15.30;78.38
6096;BME280;25081;42.698;23.298;2022-11-20T09:34:51;94621.96;;;15.28;77.55
6096;BME280;25081;42.698;23.298;2022-11-20T09:37:01;94619.51;;;15.16;76.80
6096;BME280;25081;42.698;23.298;2022-11-20T09:39:12;94607.97;;;15.21;79.22
6096;BME280;25081;42.698;23.298;2022-11-20T09:41:32;94592.80;;;15.70;78.67
6096;BME280;25081;42.698;23.298;2022-11-20T09:43:46;94592.80;;;15.70;78.67
6096;BME280;25081;42.698;23.298;2022-11-20T09:46:07;94585.00;;;16.50;76.22
6096;BME280;25081;42.698;23.298;2022-11-20T09:48:24;94579.90;;;18.51;71.80
6096;BME280;25081;42.698;23.298;2022-11-20T09:50:34;94579.90;;;18.51;71.80
6096;BME280;25081;42.698;23.298;2022-11-20T09:52:45;94581.84;;;19.25;69.62
6096;BME280;25081;42.698;23.298;2022-11-20T09:54:55;94581.69;;;19.78;68.79
6096;BME280;25081;42.698;23.298;2022-11-20T09:57:09;94582.48;;;19.81;66.37
6096;BME280;25081;42.698;23.298;2022-11-20T09:59:32;94573.27;;;19.39;66.69
6096;BME280;25081;42.698;23.298;2022-11-20T10:01:42;94577.67;;;19.54;67.95
6096;BME280;25081;42.698;23.298;2022-11-20T10:03:56;94579.47;;;19.63;67.04
6096;BME280;25081;42.698;23.298;2022-11-20T10:06:07;94574.77;;;19.88;66.76
6096;BME280;25081;42.698;23.298;2022-11-20T10:08:17;94576.03;;;19.55;66.53
6096;BME280;25081;42.698;23.298;2022-11-20T10:10:31;94566.45;;;19.65;66.61
6096;BME280;25081;42.698;23.298;2022-11-20T10:12:43;94563.75;;;19.65;66.10
6096;BME280;25081;42.698;23.298;2022-11-20T10:14:57;94555.28;;;19.72;66.46
6096;BME280;25081;42.698;23.298;2022-11-20T10:17:11;94554.23;;;19.87;64.87
6096;BME280;25081;42.698;23.298;2022-11-20T10:19:27;94546.82;;;19.36;65.27
6096;BME280;25081;42.698;23.298;2022-11-20T10:21:38;94541.70;;;19.34;65.46
6096;BME280;25081;42.698;23.298;2022-11-20T10:24:23;94551.13;;;19.58;65.52
6096;BME280;25081;42.698;23.298;2022-11-20T10:26:31;94559.28;;;19.34;64.73
6096;BME280;25081;42.698;23.298;2022-11-20T10:28:48;94550.41;;;18.86;66.85
6096;BME280;25081;42.698;23.298;2022-11-20T10:30:59;94562.45;;;18.43;67.46
6096;BME280;25081;42.698;23.298;2022-11-20T10:33:13;94574.79;;;18.49;67.68
6096;BME280;25081;42.698;23.298;2022-11-20T10:35:23;94581.78;;;18.21;68.68
6096;BME280;25081;42.698;23.298;2022-11-20T10:37:34;94578.06;;;18.46;69.30
6096;BME280;25081;42.698;23.298;2022-11-20T10:39:47;94574.50;;;18.53;69.43
6096;BME280;25081;42.698;23.298;2022-11-20T10:41:55;94564.95;;;18.35;69.87
6096;BME280;25081;42.698;23.298;2022-11-20T10:44:09;94574.55;;;18.14;70.64
6096;BME280;25081;42.698;23.298;2022-11-20T10:46:20;94582.40;;;17.74;72.48
6096;BME280;25081;42.698;23.298;2022-11-20T10:48:31;94580.48;;;17.30;74.16
6096;BME280;25081;42.698;23.298;2022-11-20T10:50:45;94579.11;;;17.33;73.61
6096;BME280;25081;42.698;23.298;2022-11-20T10:52:55;94554.05;;;17.32;73.34
6096;BME280;25081;42.698;23.298;2022-11-20T10:55:09;94562.25;;;17.07;74.27
6096;BME280;25081;42.698;23.298;2022-11-20T10:57:27;94574.98;;;16.91;74.89
6096;BME280;25081;42.698;23.298;2022-11-20T10:59:47;94582.86;;;16.52;77.18
6096;BME280;25081;42.698;23.298;2022-11-20T11:01:57;94572.14;;;16.06;78.21
6096;BME280;25081;42.698;23.298;2022-11-20T11:04:14;94572.14;;;16.06;78.21
6096;BME280;25081;42.698;23.298;2022-11-20T11:06:25;94585.56;;;15.65;77.65
6096;BME280;25081;42.698;23.298;2022-11-20T11:08:36;94656.92;;;15.41;79.17
6096;BME280;25081;42.698;23.298;2022-11-20T11:10:47;94677.08;;;14.88;79.18
6096;BME280;25081;42.698;23.298;2022-11-20T11:12:57;94669.86;;;13.20;84.51
6096;BME280;25081;42.698;23.298;2022-11-20T11:15:13;94642.47;;;12.74;81.79
6096;BME280;25081;42.698;23.298;2022-11-20T11:17:25;94640.23;;;13.07;81.35
6096;BME280;25081;42.698;23.298;2022-11-20T11:19:37;94647.50;;;13.31;81.65
6096;BME280;25081;42.698;23.298;2022-11-20T11:21:49;94613.58;;;13.36;79.23
6096;BME280;25081;42.698;23.298;2022-11-20T11:24:00;94618.84;;;13.53;80.70
6096;BME280;25081;42.698;23.298;2022-11-20T11:26:19;94619.05;;;13.49;77.73
6096;BME280;25081;42.698;23.298;2022-11-20T11:28:29;94617.99;;;13.50;79.10
6096;BME280;25081;42.698;23.298;2022-11-20T11:30:43;94537.90;;;13.19;77.67
6096;BME280;25081;42.698;23.298;2022-11-20T11:33:03;94578.89;;;13.79;78.84
6096;BME280;25081;42.698;23.298;2022-11-20T11:35:26;94596.02;;;13.48;80.21
6096;BME280;25081;42.698;23.298;2022-11-20T11:37:37;94599.60;;;13.59;77.99